WMKN/TGG METAR and TAF weather

Enter ICAO airport designator
Station Type Date Time Source
WMKN METAR 2019/04/25 17:00 UTC NOAA

WMKN 251700Z VRB03KT 9999 FEW022 BKN300 26/25 Q1009


Station Type Date Time Source
WMKN Decoded METAR 2019/04/25 17:00 UTC NOAA

Station name not available
Apr 25, 2019 - 01:00 PM EDT / 2019.04.25 1700 UTC
Wind: Variable at 3 MPH (3 KT):0
Visibility: greater than 7 mile(s):0
Sky conditions: mostly cloudy
Temperature: 78 F (26 C)
Dew Point: 77 F (25 C)
Relative Humidity: 94%
Pressure (altimeter): 29.80 in. Hg (1009 hPa)
ob: WMKN 251700Z VRB03KT 9999 FEW022 BKN300 26/25 Q1009
cycle: 17

Station Type Date Time Source
WMKN TAF 2019/04/25 18:00 UTC NOAA

TAF WMKN 251700Z 2518/2618 VRB03KT 9999 SCT022 BKN300
BECMG 2604/2606 04008KT

Example: see airport list